Time;durP1;ratioP1;P1;durP2;ratioP2;P2;SDS_P1;SDS_P2;PMS_P1;PMS_P2;Temp;Humidity;BMP_temperature;BMP_pressure;BME280_temperature;BME280_humidity;BME280_pressure;Samples;Min_cycle;Max_cycle;Signal;HPM_P1;HPM_P2
2023/12/01 00:01:50;;;;;;;81.20;45.00;;;;;;;;;;6122539;23;20002;-83
2023/12/01 00:04:17;;;;;;;80.57;46.40;;;;;;;;;;6060654;23;19999;-82
2023/12/01 00:06:42;;;;;;;69.97;42.35;;;;;;;;;;6061079;23;20010;-83
2023/12/01 00:09:07;;;;;;;92.68;48.70;;;;;;;;;;6036925;23;20002;-83
2023/12/01 00:11:33;;;;;;;85.38;46.72;;;;;;;;;;6060931;23;20253;-82
2023/12/01 00:13:58;;;;;;;79.13;42.90;;;;;;;;;;6036834;23;20009;-82
2023/12/01 00:16:23;;;;;;;81.97;46.22;;;;;;;;;;6036842;23;20062;-83
2023/12/01 00:18:49;;;;;;;88.05;47.45;;;;;;;;;;6037002;23;20462;-83
2023/12/01 00:21:14;;;;;;;154.88;77.80;;;;;;;;;;6036848;23;20055;-82
2023/12/01 00:23:39;;;;;;;128.20;65.90;;;;;;;;;;6036268;23;20011;-83
2023/12/01 00:26:04;;;;;;;80.70;45.42;;;;;;;;;;6036778;23;20030;-82
2023/12/01 00:28:31;;;;;;;83.60;44.72;;;;;;;;;;6036303;23;20010;-82
2023/12/01 00:30:56;;;;;;;84.95;47.17;;;;;;;;;;6036819;23;19995;-82
2023/12/01 00:33:22;;;;;;;87.05;49.72;;;;;;;;;;6036235;23;20003;-82
2023/12/01 00:35:48;;;;;;;84.03;49.63;;;;;;;;;;6104032;23;20493;-82
2023/12/01 00:38:13;;;;;;;81.03;46.95;;;;;;;;;;6095722;23;20009;-82
2023/12/01 00:40:38;;;;;;;85.20;48.28;;;;;;;;;;6121384;23;20029;-83
2023/12/01 00:43:03;;;;;;;82.68;46.50;;;;;;;;;;6121744;23;20426;-83
2023/12/01 00:45:30;;;;;;;111.25;57.67;;;;;;;;;;6122163;23;20069;-82
2023/12/01 00:47:55;;;;;;;256.98;104.63;;;;;;;;;;6121840;23;20434;-82
2023/12/01 00:50:20;;;;;;;98.80;52.20;;;;;;;;;;6121398;23;20025;-81
2023/12/01 00:52:46;;;;;;;85.32;49.20;;;;;;;;;;6095721;23;20025;-83
2023/12/01 00:55:11;;;;;;;89.05;45.65;;;;;;;;;;6095599;23;20083;-83
2023/12/01 00:57:36;;;;;;;94.07;53.05;;;;;;;;;;6096272;23;20426;-83
2023/12/01 01:00:04;;;;;;;91.28;49.83;;;;;;;;;;6095934;23;20082;-82
2023/12/01 01:02:31;;;;;;;79.95;45.25;;;;;;;;;;6096532;23;19997;-83
2023/12/01 01:04:56;;;;;;;66.25;39.58;;;;;;;;;;6063107;23;20031;-82
2023/12/01 01:07:21;;;;;;;75.93;41.95;;;;;;;;;;6036586;23;20038;-83
2023/12/01 01:09:47;;;;;;;71.70;41.83;;;;;;;;;;6060021;23;20007;-83
2023/12/01 01:12:13;;;;;;;82.53;46.42;;;;;;;;;;6036626;23;20413;-84
2023/12/01 01:14:39;;;;;;;73.80;44.13;;;;;;;;;;6036471;23;20003;-83
2023/12/01 01:17:04;;;;;;;78.40;43.13;;;;;;;;;;6035757;23;20033;-84
2023/12/01 01:19:29;;;;;;;71.90;41.42;;;;;;;;;;6036067;23;20049;-84
2023/12/01 01:21:54;;;;;;;72.90;41.35;;;;;;;;;;6059898;23;20081;-82
2023/12/01 01:24:20;;;;;;;78.88;43.22;;;;;;;;;;6036119;23;20007;-82
2023/12/01 01:26:45;;;;;;;94.93;47.47;;;;;;;;;;6036705;23;20451;-83
2023/12/01 01:29:10;;;;;;;85.18;45.92;;;;;;;;;;6036106;23;20002;-81
2023/12/01 01:31:35;;;;;;;81.03;44.50;;;;;;;;;;6060074;23;19999;-82
2023/12/01 01:34:01;;;;;;;69.10;37.35;;;;;;;;;;6035972;23;20003;-84
2023/12/01 01:36:26;;;;;;;72.18;40.92;;;;;;;;;;6077426;23;20450;-82
2023/12/01 01:38:51;;;;;;;72.03;41.05;;;;;;;;;;6096318;23;20013;-82
2023/12/01 01:41:17;;;;;;;73.22;41.28;;;;;;;;;;6096367;23;20028;-82
2023/12/01 01:43:42;;;;;;;70.43;41.17;;;;;;;;;;6095301;23;20353;-82
2023/12/01 01:46:09;;;;;;;79.85;42.33;;;;;;;;;;6121197;23;20008;-82
2023/12/01 01:48:35;;;;;;;82.65;44.83;;;;;;;;;;6095833;23;20002;-82
2023/12/01 01:51:00;;;;;;;67.00;39.17;;;;;;;;;;6121335;23;20076;-82
2023/12/01 01:53:26;;;;;;;78.65;42.85;;;;;;;;;;6095405;23;20028;-82
2023/12/01 01:55:52;;;;;;;85.90;47.17;;;;;;;;;;6095928;23;20509;-82
2023/12/01 01:58:17;;;;;;;72.05;42.63;;;;;;;;;;6122679;23;20375;-83
2023/12/01 02:00:49;;;;;;;89.53;47.42;;;;;;;;;;6096417;23;20065;-82
2023/12/01 02:03:14;;;;;;;90.72;50.38;;;;;;;;;;6095245;23;20006;-82
2023/12/01 02:05:40;;;;;;;95.05;50.40;;;;;;;;;;6094770;23;20386;-84
2023/12/01 02:08:20;;;;;;;63.00;35.03;;;;;;;;;;6095079;23;20002;-82
2023/12/01 02:10:46;;;;;;;78.13;43.78;;;;;;;;;;6093215;23;20054;-82
2023/12/01 02:13:14;;;;;;;75.18;40.42;;;;;;;;;;6095442;23;20006;-84
2023/12/01 02:15:40;;;;;;;94.20;52.58;;;;;;;;;;6094963;23;20319;-83
2023/12/01 02:18:17;;;;;;;93.70;51.35;;;;;;;;;;6095029;23;20287;-84
2023/12/01 02:20:42;;;;;;;93.25;49.28;;;;;;;;;;6095289;23;20338;-82
2023/12/01 02:23:08;;;;;;;79.57;45.13;;;;;;;;;;6120811;23;20077;-83
2023/12/01 02:25:33;;;;;;;72.93;41.70;;;;;;;;;;6094468;23;20010;-83
2023/12/01 02:28:00;;;;;;;75.78;43.95;;;;;;;;;;6094771;23;20006;-84
2023/12/01 02:30:25;;;;;;;79.03;44.47;;;;;;;;;;6094618;23;19998;-82
2023/12/01 02:32:50;;;;;;;79.07;42.28;;;;;;;;;;6094915;23;20036;-83
2023/12/01 02:35:17;;;;;;;92.38;47.20;;;;;;;;;;6120620;23;20013;-82
2023/12/01 02:37:42;;;;;;;86.63;47.58;;;;;;;;;;6093883;23;20002;-82
2023/12/01 02:40:15;;;;;;;64.65;34.55;;;;;;;;;;6094577;23;20442;-82
2023/12/01 02:42:50;;;;;;;77.55;42.75;;;;;;;;;;6121271;23;20073;-83
2023/12/01 02:45:16;;;;;;;68.03;36.83;;;;;;;;;;6097518;23;20017;-83
2023/12/01 02:47:43;;;;;;;66.07;37.42;;;;;;;;;;6097347;23;19998;-82
2023/12/01 02:50:09;;;;;;;70.57;40.25;;;;;;;;;;6097485;23;20637;-81
2023/12/01 02:52:36;;;;;;;62.75;33.72;;;;;;;;;;6096926;23;20002;-82
2023/12/01 02:55:01;;;;;;;67.93;38.17;;;;;;;;;;6097541;23;20341;-82
2023/12/01 02:57:26;;;;;;;64.13;36.67;;;;;;;;;;6123662;23;20069;-82
2023/12/01 02:59:52;;;;;;;69.25;39.70;;;;;;;;;;6122593;23;20028;-84
2023/12/01 03:02:17;;;;;;;82.47;43.55;;;;;;;;;;6096501;23;20006;-82
2023/12/01 03:04:43;;;;;;;70.10;41.58;;;;;;;;;;6122930;23;20276;-82
2023/12/01 03:07:08;;;;;;;83.68;44.05;;;;;;;;;;6122056;23;20013;-82
2023/12/01 03:09:33;;;;;;;72.97;39.95;;;;;;;;;;6096745;23;20343;-83
2023/12/01 03:11:59;;;;;;;66.50;36.58;;;;;;;;;;6121979;23;20050;-82
2023/12/01 03:14:24;;;;;;;79.32;41.85;;;;;;;;;;6096062;23;20002;-82
2023/12/01 03:16:49;;;;;;;74.10;41.55;;;;;;;;;;6096972;23;20006;-82
2023/12/01 03:19:14;;;;;;;77.68;43.38;;;;;;;;;;6122669;23;20330;-81
2023/12/01 03:21:40;;;;;;;70.38;40.85;;;;;;;;;;6122791;23;20057;-82
2023/12/01 03:24:09;;;;;;;70.38;39.00;;;;;;;;;;6096720;23;20012;-82
2023/12/01 03:26:35;;;;;;;70.55;40.28;;;;;;;;;;6122969;23;20002;-84
2023/12/01 03:29:00;;;;;;;66.90;37.55;;;;;;;;;;6096437;23;20013;-82
2023/12/01 03:31:25;;;;;;;63.45;34.25;;;;;;;;;;6099549;23;20374;-83
2023/12/01 03:33:50;;;;;;;58.80;32.50;;;;;;;;;;6097275;23;19998;-82
2023/12/01 03:36:16;;;;;;;72.57;40.55;;;;;;;;;;6123914;23;20031;-82
2023/12/01 03:38:42;;;;;;;62.03;34.17;;;;;;;;;;6097226;23;20001;-84
2023/12/01 03:41:07;;;;;;;64.38;36.83;;;;;;;;;;6099315;23;20050;-81
2023/12/01 03:43:33;;;;;;;74.30;40.95;;;;;;;;;;6124050;23;19998;-82
2023/12/01 03:45:58;;;;;;;60.92;36.33;;;;;;;;;;6123320;23;20002;-83
2023/12/01 03:48:23;;;;;;;76.97;42.10;;;;;;;;;;6097097;23;20473;-84
2023/12/01 03:50:50;;;;;;;73.65;41.58;;;;;;;;;;6096332;23;20427;-82
2023/12/01 03:53:15;;;;;;;76.13;41.80;;;;;;;;;;6095925;23;20358;-82
2023/12/01 03:55:41;;;;;;;80.88;45.85;;;;;;;;;;6096383;23;20002;-81
2023/12/01 03:58:06;;;;;;;77.15;43.05;;;;;;;;;;6095691;23;19998;-83
2023/12/01 04:00:32;;;;;;;75.75;42.50;;;;;;;;;;6096317;23;20002;-82
2023/12/01 04:02:57;;;;;;;77.72;43.50;;;;;;;;;;6096434;23;20028;-82
2023/12/01 04:05:25;;;;;;;70.50;40.72;;;;;;;;;;6121506;23;20250;-82
2023/12/01 04:07:54;;;;;;;70.43;40.20;;;;;;;;;;6095929;23;20466;-83
2023/12/01 04:10:21;;;;;;;69.68;38.83;;;;;;;;;;6095993;23;20002;-82
2023/12/01 04:12:46;;;;;;;80.18;43.70;;;;;;;;;;6096096;23;20009;-84
2023/12/01 04:15:15;;;;;;;64.88;35.08;;;;;;;;;;6121988;23;20006;-84
2023/12/01 04:17:42;;;;;;;75.18;45.25;;;;;;;;;;6096136;23;19994;-82
2023/12/01 04:20:20;;;;;;;79.25;44.95;;;;;;;;;;6103391;23;20389;-83
2023/12/01 04:22:47;;;;;;;70.83;41.27;;;;;;;;;;6104305;23;20327;-84
2023/12/01 04:25:12;;;;;;;71.75;40.88;;;;;;;;;;6124307;23;20136;-82
2023/12/01 04:27:38;;;;;;;76.93;45.03;;;;;;;;;;6124197;23;20418;-83
2023/12/01 04:30:04;;;;;;;73.15;43.03;;;;;;;;;;6122573;23;20029;-83
2023/12/01 04:32:29;;;;;;;75.75;43.28;;;;;;;;;;6123269;23;19990;-82
2023/12/01 04:34:54;;;;;;;74.50;42.88;;;;;;;;;;6096910;23;20050;-82
2023/12/01 04:37:19;;;;;;;72.25;40.15;;;;;;;;;;6096703;23;20056;-83
2023/12/01 04:39:46;;;;;;;80.68;47.30;;;;;;;;;;6123850;23;19994;-83
2023/12/01 04:42:11;;;;;;;81.47;49.03;;;;;;;;;;6098531;23;20026;-82
2023/12/01 04:44:36;;;;;;;75.90;43.78;;;;;;;;;;6098449;23;20052;-82
2023/12/01 04:47:02;;;;;;;80.30;45.50;;;;;;;;;;6098993;23;19998;-82
2023/12/01 04:49:27;;;;;;;74.63;43.85;;;;;;;;;;6124822;23;19998;-84
2023/12/01 04:51:52;;;;;;;77.72;44.33;;;;;;;;;;6123378;23;20024;-82
2023/12/01 04:54:18;;;;;;;71.22;42.85;;;;;;;;;;6123013;23;20008;-82
2023/12/01 04:56:43;;;;;;;84.38;46.05;;;;;;;;;;6096107;23;20039;-82
2023/12/01 04:59:08;;;;;;;85.05;46.40;;;;;;;;;;6096311;23;20006;-82
2023/12/01 05:01:35;;;;;;;86.60;46.45;;;;;;;;;;6095405;23;20002;-82
2023/12/01 05:04:01;;;;;;;88.40;47.30;;;;;;;;;;6096556;23;20006;-83
2023/12/01 05:06:26;;;;;;;86.88;47.47;;;;;;;;;;6096007;23;20084;-82
2023/12/01 05:08:51;;;;;;;88.60;49.72;;;;;;;;;;6099824;23;20012;-82
2023/12/01 05:11:17;;;;;;;165.23;86.85;;;;;;;;;;6122573;23;20319;-82
2023/12/01 05:13:42;;;;;;;107.65;59.25;;;;;;;;;;6096594;23;20029;-81
2023/12/01 05:16:07;;;;;;;117.05;62.92;;;;;;;;;;6121345;23;20004;-82
2023/12/01 05:18:33;;;;;;;233.13;136.27;;;;;;;;;;6095629;23;20006;-83
2023/12/01 05:20:58;;;;;;;154.27;79.00;;;;;;;;;;6095908;23;20430;-82
2023/12/01 05:23:23;;;;;;;194.98;107.50;;;;;;;;;;6121332;23;20005;-82
2023/12/01 05:25:50;;;;;;;195.65;113.72;;;;;;;;;;6094435;23;20012;-83
2023/12/01 05:28:16;;;;;;;97.57;53.33;;;;;;;;;;6121347;23;19994;-82
2023/12/01 05:30:43;;;;;;;90.05;50.45;;;;;;;;;;6095192;23;20049;-83
2023/12/01 05:33:09;;;;;;;70.00;40.63;;;;;;;;;;6095404;23;20382;-84
2023/12/01 05:35:35;;;;;;;85.07;48.47;;;;;;;;;;6094826;23;19998;-82
2023/12/01 05:38:00;;;;;;;98.47;57.20;;;;;;;;;;6093859;23;20504;-84
2023/12/01 05:40:29;;;;;;;93.22;61.40;;;;;;;;;;6070762;23;20026;-84
2023/12/01 05:42:55;;;;;;;114.22;75.85;;;;;;;;;;6097270;23;20009;-84
2023/12/01 05:45:26;;;;;;;107.45;65.28;;;;;;;;;;6120814;23;20346;-84
2023/12/01 05:47:55;;;;;;;91.75;60.63;;;;;;;;;;6121737;23;20073;-83
2023/12/01 05:50:21;;;;;;;185.80;108.63;;;;;;;;;;6095255;23;20378;-83
2023/12/01 05:52:47;;;;;;;103.65;70.25;;;;;;;;;;6122076;23;19991;-82
2023/12/01 05:55:16;;;;;;;78.90;56.78;;;;;;;;;;6123290;23;20048;-85
2023/12/01 05:57:42;;;;;;;103.15;64.18;;;;;;;;;;6096438;23;20081;-84
2023/12/01 06:00:12;;;;;;;36.00;27.02;;;;;;;;;;6100010;23;20397;-83
2023/12/01 06:02:39;;;;;;;37.47;28.35;;;;;;;;;;6126177;23;20005;-84
2023/12/01 06:05:04;;;;;;;29.73;22.02;;;;;;;;;;6100142;23;20063;-85
2023/12/01 06:07:29;;;;;;;74.35;52.05;;;;;;;;;;6126837;23;20022;-85
2023/12/01 06:09:55;;;;;;;18.58;13.25;;;;;;;;;;6099544;23;20036;-83
2023/12/01 06:12:20;;;;;;;20.83;14.90;;;;;;;;;;6074811;23;20314;-82
2023/12/01 06:14:46;;;;;;;29.67;19.70;;;;;;;;;;6120866;23;20005;-83
2023/12/01 06:17:11;;;;;;;25.70;16.70;;;;;;;;;;6095048;23;20029;-84
2023/12/01 06:19:36;;;;;;;24.83;17.70;;;;;;;;;;6120803;23;20016;-84
2023/12/01 06:22:02;;;;;;;32.47;21.58;;;;;;;;;;6123050;23;20060;-84
2023/12/01 06:24:27;;;;;;;25.15;17.35;;;;;;;;;;6123062;23;19998;-83
2023/12/01 06:26:53;;;;;;;32.80;24.02;;;;;;;;;;6097575;23;20434;-85
2023/12/01 06:29:18;;;;;;;28.55;17.88;;;;;;;;;;6098031;23;20006;-83
2023/12/01 06:31:43;;;;;;;21.58;13.85;;;;;;;;;;6096148;23;20024;-84
2023/12/01 06:34:09;;;;;;;18.10;12.25;;;;;;;;;;6096977;23;19998;-82
2023/12/01 06:36:34;;;;;;;19.83;13.50;;;;;;;;;;6096866;23;20330;-84
2023/12/01 06:38:59;;;;;;;22.83;15.63;;;;;;;;;;6096290;23;20013;-84
2023/12/01 06:41:25;;;;;;;57.17;36.22;;;;;;;;;;6096846;23;20037;-83
2023/12/01 06:43:50;;;;;;;28.88;20.33;;;;;;;;;;6097163;23;20500;-83
2023/12/01 06:46:15;;;;;;;33.60;21.35;;;;;;;;;;6097327;23;20006;-82
2023/12/01 06:48:40;;;;;;;46.47;29.02;;;;;;;;;;6123501;23;20304;-84
2023/12/01 06:51:06;;;;;;;44.97;29.38;;;;;;;;;;6096702;23;19998;-84
2023/12/01 06:53:31;;;;;;;31.35;19.95;;;;;;;;;;6096973;23;20073;-82
2023/12/01 06:55:56;;;;;;;47.28;24.70;;;;;;;;;;6096767;23;19998;-84
2023/12/01 06:58:22;;;;;;;66.60;34.92;;;;;;;;;;6122481;23;20025;-83
2023/12/01 07:00:48;;;;;;;68.85;34.42;;;;;;;;;;6096824;23;20032;-84
2023/12/01 07:03:14;;;;;;;134.30;64.60;;;;;;;;;;6096736;23;20002;-82
2023/12/01 07:05:39;;;;;;;59.17;37.00;;;;;;;;;;6096013;23;20009;-84
2023/12/01 07:08:11;;;;;;;52.45;38.25;;;;;;;;;;6096868;23;20002;-81
2023/12/01 07:10:36;;;;;;;35.85;26.60;;;;;;;;;;6097244;23;20411;-84
2023/12/01 07:13:03;;;;;;;38.13;27.45;;;;;;;;;;6122651;23;20025;-84
2023/12/01 07:15:29;;;;;;;31.58;23.05;;;;;;;;;;6096313;23;19998;-83
2023/12/01 07:17:55;;;;;;;33.55;21.55;;;;;;;;;;6095898;23;19994;-82
2023/12/01 07:20:21;;;;;;;14.73;12.18;;;;;;;;;;6096626;23;19994;-84
2023/12/01 07:22:46;;;;;;;24.48;16.10;;;;;;;;;;6096143;23;20072;-83
2023/12/01 07:25:34;;;;;;;24.77;18.45;;;;;;;;;;6095845;23;19998;-83
2023/12/01 07:28:02;;;;;;;33.30;21.58;;;;;;;;;;6121306;23;20078;-84
2023/12/01 07:30:28;;;;;;;27.70;18.65;;;;;;;;;;6096511;23;20307;-82
2023/12/01 07:32:54;;;;;;;18.98;13.38;;;;;;;;;;6095817;23;20057;-85
2023/12/01 07:35:19;;;;;;;24.02;18.25;;;;;;;;;;6096040;23;20002;-84
2023/12/01 07:37:45;;;;;;;23.55;17.13;;;;;;;;;;6096109;23;20002;-83
2023/12/01 07:40:11;;;;;;;27.52;20.02;;;;;;;;;;6095726;23;20446;-83
2023/12/01 07:42:37;;;;;;;20.65;13.98;;;;;;;;;;6095534;23;19994;-83
2023/12/01 07:45:02;;;;;;;17.65;12.23;;;;;;;;;;6092973;23;20005;-83
2023/12/01 07:47:28;;;;;;;12.38;8.38;;;;;;;;;;6069748;23;20342;-82
2023/12/01 07:49:53;;;;;;;27.35;18.08;;;;;;;;;;6092779;23;20590;-83
2023/12/01 07:52:19;;;;;;;47.30;23.50;;;;;;;;;;6092644;23;19998;-83
2023/12/01 07:54:45;;;;;;;21.17;12.25;;;;;;;;;;6096386;23;20009;-82
2023/12/01 07:57:10;;;;;;;12.77;8.05;;;;;;;;;;6121417;23;19998;-85
2023/12/01 07:59:36;;;;;;;16.75;10.55;;;;;;;;;;6095731;23;20002;-83
2023/12/01 08:02:01;;;;;;;6.30;4.30;;;;;;;;;;6096157;23;20131;-84
2023/12/01 08:04:26;;;;;;;18.27;13.40;;;;;;;;;;6061068;23;20022;-82
2023/12/01 08:06:52;;;;;;;13.80;9.43;;;;;;;;;;6060890;23;20059;-84
2023/12/01 08:09:17;;;;;;;20.40;12.68;;;;;;;;;;6037369;23;20560;-83
2023/12/01 08:11:43;;;;;;;23.05;14.88;;;;;;;;;;6060973;23;20115;-83
2023/12/01 08:14:10;;;;;;;31.30;21.75;;;;;;;;;;6012790;23;20007;-81
2023/12/01 08:16:35;;;;;;;59.45;38.92;;;;;;;;;;6036561;23;20027;-81
2023/12/01 08:19:00;;;;;;;21.35;15.45;;;;;;;;;;6059655;23;20029;-82
2023/12/01 08:21:26;;;;;;;64.38;40.40;;;;;;;;;;6037026;23;20003;-83
2023/12/01 08:23:51;;;;;;;29.23;19.88;;;;;;;;;;6061359;23;20007;-84
2023/12/01 08:26:16;;;;;;;18.23;12.82;;;;;;;;;;6060179;23;19999;-83
2023/12/01 08:28:41;;;;;;;65.32;38.20;;;;;;;;;;6059532;23;20002;-82
2023/12/01 08:31:07;;;;;;;38.47;22.40;;;;;;;;;;6036229;23;20002;-84
2023/12/01 08:33:35;;;;;;;27.30;17.70;;;;;;;;;;6037189;23;20010;-84
2023/12/01 08:36:01;;;;;;;37.42;28.33;;;;;;;;;;6079350;23;20026;-84
2023/12/01 08:38:26;;;;;;;44.90;29.20;;;;;;;;;;6095635;23;20006;-82
2023/12/01 08:40:51;;;;;;;55.50;36.00;;;;;;;;;;6123304;23;20022;-82
2023/12/01 08:43:17;;;;;;;113.75;62.03;;;;;;;;;;6121426;23;20002;-83
2023/12/01 08:45:42;;;;;;;71.63;40.90;;;;;;;;;;6094683;23;20030;-82
2023/12/01 08:48:07;;;;;;;67.95;35.28;;;;;;;;;;6095224;23;20382;-82
2023/12/01 08:50:33;;;;;;;38.95;23.33;;;;;;;;;;6095462;23;20005;-83
2023/12/01 08:52:58;;;;;;;60.10;33.60;;;;;;;;;;6121017;23;20009;-84
2023/12/01 08:55:23;;;;;;;51.30;28.55;;;;;;;;;;6095558;23;20006;-83
2023/12/01 08:57:49;;;;;;;110.68;65.35;;;;;;;;;;6121522;23;20306;-83
2023/12/01 09:00:20;;;;;;;52.58;33.90;;;;;;;;;;6092488;23;20085;-84
2023/12/01 09:02:45;;;;;;;49.47;31.50;;;;;;;;;;6092783;23;20002;-84
2023/12/01 09:05:11;;;;;;;6.20;4.95;;;;;;;;;;6117863;23;20072;-84
2023/12/01 09:07:36;;;;;;;13.90;11.02;;;;;;;;;;6057061;23;20007;-85
2023/12/01 09:10:01;;;;;;;25.50;18.27;;;;;;;;;;6033468;23;19999;-84
2023/12/01 09:12:27;;;;;;;66.78;44.25;;;;;;;;;;6057760;23;20030;-84
2023/12/01 09:14:52;;;;;;;47.38;31.48;;;;;;;;;;6057651;23;20006;-84
2023/12/01 09:17:17;;;;;;;79.32;47.47;;;;;;;;;;6057720;23;20078;-82
2023/12/01 09:19:43;;;;;;;17.55;11.45;;;;;;;;;;6036374;23;20483;-84
2023/12/01 09:22:08;;;;;;;48.00;28.80;;;;;;;;;;6036064;23;19999;-84
2023/12/01 09:24:34;;;;;;;60.67;30.60;;;;;;;;;;6059372;23;20062;-84
2023/12/01 09:26:59;;;;;;;20.73;12.15;;;;;;;;;;6035246;23;20013;-84
2023/12/01 09:29:25;;;;;;;50.83;34.80;;;;;;;;;;6036329;23;20039;-84
2023/12/01 09:31:50;;;;;;;10.60;9.10;;;;;;;;;;6012320;23;20098;-85
2023/12/01 09:34:15;;;;;;;7.78;5.75;;;;;;;;;;6059387;23;20003;-85
2023/12/01 09:36:44;;;;;;;13.95;9.10;;;;;;;;;;6059807;23;20028;-82
2023/12/01 09:39:09;;;;;;;24.30;18.08;;;;;;;;;;6078579;23;20427;-83
2023/12/01 09:41:35;;;;;;;8.50;6.10;;;;;;;;;;6094728;23;20100;-84
2023/12/01 09:44:03;;;;;;;33.13;26.17;;;;;;;;;;6117844;23;20028;-83
2023/12/01 09:46:34;;;;;;;22.70;18.73;;;;;;;;;;6093527;23;20096;-83
2023/12/01 09:48:59;;;;;;;15.93;11.70;;;;;;;;;;6095737;23;20010;-83
2023/12/01 09:51:25;;;;;;;14.18;9.77;;;;;;;;;;6095642;23;19998;-82
2023/12/01 09:53:50;;;;;;;22.35;16.80;;;;;;;;;;6095430;23;20495;-81
2023/12/01 09:56:16;;;;;;;14.40;10.05;;;;;;;;;;6095464;23;20053;-81
2023/12/01 09:58:42;;;;;;;16.20;10.77;;;;;;;;;;6094945;23;20009;-83
2023/12/01 10:01:07;;;;;;;14.82;12.02;;;;;;;;;;6095962;23;19998;-83
2023/12/01 10:03:32;;;;;;;17.92;13.13;;;;;;;;;;6095607;23;20021;-84
2023/12/01 10:05:59;;;;;;;33.55;23.40;;;;;;;;;;6118870;23;20004;-84
2023/12/01 10:08:32;;;;;;;8.77;6.93;;;;;;;;;;6092688;23;20060;-85
2023/12/01 10:10:58;;;;;;;10.32;7.00;;;;;;;;;;6091866;23;20430;-85
2023/12/01 10:13:23;;;;;;;14.05;10.20;;;;;;;;;;6092074;23;20013;-84
2023/12/01 10:15:49;;;;;;;19.02;15.73;;;;;;;;;;6117827;23;20006;-83
2023/12/01 10:18:17;;;;;;;8.45;7.50;;;;;;;;;;6118421;23;20013;-85
2023/12/01 10:21:07;;;;;;;7.57;4.22;;;;;;;;;;6093043;23;20014;-84
2023/12/01 10:23:33;;;;;;;7.43;5.55;;;;;;;;;;6118815;23;20012;-85
2023/12/01 10:26:00;;;;;;;8.70;7.35;;;;;;;;;;6092543;23;20434;-84
2023/12/01 10:28:41;;;;;;;7.53;5.03;;;;;;;;;;6092692;23;20013;-83
2023/12/01 10:31:06;;;;;;;21.02;12.23;;;;;;;;;;6092727;23;20009;-83
2023/12/01 10:33:34;;;;;;;22.08;14.82;;;;;;;;;;6119169;23;20002;-84
2023/12/01 10:36:01;;;;;;;7.55;5.97;;;;;;;;;;6068859;23;20010;-85
2023/12/01 10:38:28;;;;;;;9.73;5.50;;;;;;;;;;6118171;23;20013;-85
2023/12/01 10:40:54;;;;;;;8.55;4.65;;;;;;;;;;6068514;23;20026;-84
2023/12/01 10:43:20;;;;;;;8.60;4.65;;;;;;;;;;6096312;23;20005;-85
2023/12/01 10:45:48;;;;;;;13.60;8.07;;;;;;;;;;6095895;23;20456;-84
2023/12/01 10:48:13;;;;;;;14.18;7.03;;;;;;;;;;6094772;23;20338;-85
2023/12/01 10:50:40;;;;;;;24.83;15.23;;;;;;;;;;6096391;23;20085;-84
2023/12/01 10:53:07;;;;;;;15.50;8.52;;;;;;;;;;6095657;23;20009;-85
2023/12/01 10:55:32;;;;;;;13.15;8.63;;;;;;;;;;6095040;23;20002;-82
2023/12/01 10:57:58;;;;;;;9.45;5.07;;;;;;;;;;6094471;23;20077;-84
2023/12/01 11:00:30;;;;;;;10.88;7.03;;;;;;;;;;6094489;23;20334;-84
2023/12/01 11:02:58;;;;;;;5.90;4.20;;;;;;;;;;6121100;23;20377;-85
2023/12/01 11:05:24;;;;;;;7.25;3.60;;;;;;;;;;6095190;23;20056;-83
2023/12/01 11:07:58;;;;;;;7.97;5.18;;;;;;;;;;6096049;23;19997;-85
2023/12/01 11:10:30;;;;;;;8.52;6.03;;;;;;;;;;6122510;23;20002;-84
2023/12/01 11:13:04;;;;;;;9.98;5.82;;;;;;;;;;6096906;23;20402;-82
2023/12/01 11:15:31;;;;;;;11.65;8.02;;;;;;;;;;6094663;23;20002;-83
2023/12/01 11:17:57;;;;;;;16.67;12.00;;;;;;;;;;6072532;23;20033;-85
2023/12/01 11:20:52;;;;;;;28.73;21.48;;;;;;;;;;6096786;23;20434;-84
2023/12/01 11:23:20;;;;;;;10.73;5.90;;;;;;;;;;5976025;24;20008;-85
2023/12/01 11:25:50;;;;;;;11.80;7.32;;;;;;;;;;5975242;24;20008;-84
2023/12/01 11:28:21;;;;;;;23.42;16.23;;;;;;;;;;5953303;24;20008;-85
2023/12/01 11:31:01;;;;;;;10.32;7.05;;;;;;;;;;5977306;24;19997;-85
2023/12/01 11:33:32;;;;;;;47.88;27.65;;;;;;;;;;5952481;24;20058;-84
2023/12/01 11:36:16;;;;;;;18.00;10.73;;;;;;;;;;5951659;24;20024;-85
2023/12/01 11:39:00;;;;;;;11.30;7.57;;;;;;;;;;5975922;24;20101;-84
2023/12/01 11:41:25;;;;;;;17.77;11.63;;;;;;;;;;5974118;24;20024;-84
2023/12/01 11:44:07;;;;;;;21.52;12.20;;;;;;;;;;5953186;24;20087;-85
2023/12/01 11:46:38;;;;;;;20.45;14.50;;;;;;;;;;5975840;24;20005;-84
2023/12/01 11:49:04;;;;;;;14.43;11.95;;;;;;;;;;5976110;24;20000;-83
2023/12/01 11:51:30;;;;;;;16.25;10.43;;;;;;;;;;5975965;24;20419;-85
2023/12/01 11:53:58;;;;;;;12.77;9.32;;;;;;;;;;5952757;24;20117;-86
2023/12/01 11:56:32;;;;;;;26.80;18.10;;;;;;;;;;5954702;24;20108;-85
2023/12/01 11:58:59;;;;;;;12.23;10.02;;;;;;;;;;5980119;23;20002;-86
2023/12/01 12:01:24;;;;;;;22.85;14.00;;;;;;;;;;6097730;23;20010;-85
2023/12/01 12:03:56;;;;;;;33.17;19.77;;;;;;;;;;6121797;23;20457;-85
2023/12/01 12:06:21;;;;;;;21.05;13.57;;;;;;;;;;6093588;23;20005;-83
2023/12/01 12:08:48;;;;;;;17.17;9.68;;;;;;;;;;6093714;23;20463;-85
2023/12/01 12:11:13;;;;;;;28.33;15.27;;;;;;;;;;6093798;23;20006;-84
2023/12/01 12:13:39;;;;;;;62.67;28.40;;;;;;;;;;6095152;23;20477;-85
2023/12/01 12:16:07;;;;;;;10.68;6.45;;;;;;;;;;6097971;23;20002;-85
2023/12/01 12:18:33;;;;;;;16.20;10.15;;;;;;;;;;6112555;23;20002;-84
2023/12/01 12:21:02;;;;;;;8.13;6.15;;;;;;;;;;6094769;23;20020;-84
2023/12/01 12:23:28;;;;;;;9.00;6.63;;;;;;;;;;6095593;23;20029;-86
2023/12/01 12:25:54;;;;;;;36.00;23.95;;;;;;;;;;6120732;23;20016;-85
2023/12/01 12:28:19;;;;;;;6.55;4.50;;;;;;;;;;6120949;23;20009;-87
2023/12/01 12:30:47;;;;;;;10.10;5.63;;;;;;;;;;6007869;23;20086;-84
2023/12/01 12:33:12;;;;;;;29.75;19.83;;;;;;;;;;6008548;23;20000;-85
2023/12/01 12:35:38;;;;;;;13.80;10.48;;;;;;;;;;6032666;23;20206;-84
2023/12/01 12:38:03;;;;;;;16.48;10.93;;;;;;;;;;6008683;23;20010;-86
2023/12/01 12:40:36;;;;;;;7.82;4.68;;;;;;;;;;6032768;23;20042;-84
2023/12/01 12:43:05;;;;;;;27.02;19.65;;;;;;;;;;6008730;23;20003;-87
2023/12/01 12:45:30;;;;;;;14.00;8.38;;;;;;;;;;6032808;23;19999;-85
2023/12/01 12:48:09;;;;;;;16.13;10.52;;;;;;;;;;6032173;23;20030;-86
2023/12/01 12:50:46;;;;;;;30.17;17.30;;;;;;;;;;6032684;23;20003;-83
2023/12/01 12:53:12;;;;;;;19.38;10.38;;;;;;;;;;6027762;23;20003;-83
2023/12/01 12:55:38;;;;;;;9.57;5.70;;;;;;;;;;6031778;23;19995;-84
2023/12/01 12:58:03;;;;;;;69.90;42.10;;;;;;;;;;6008662;23;20003;-83
2023/12/01 13:00:29;;;;;;;62.38;32.42;;;;;;;;;;6032456;23;20082;-84
2023/12/01 13:02:54;;;;;;;23.48;14.05;;;;;;;;;;6095211;23;20026;-84
2023/12/01 13:05:20;;;;;;;10.85;7.28;;;;;;;;;;6121576;23;19994;-85
2023/12/01 13:07:46;;;;;;;16.70;9.35;;;;;;;;;;6119585;23;20002;-85
2023/12/01 13:10:11;;;;;;;10.50;5.60;;;;;;;;;;6095885;23;20144;-85
2023/12/01 13:12:37;;;;;;;19.05;12.30;;;;;;;;;;6120897;23;19998;-85
2023/12/01 13:15:03;;;;;;;17.90;9.75;;;;;;;;;;6096049;23;20057;-84
2023/12/01 13:17:28;;;;;;;15.63;11.88;;;;;;;;;;6095303;23;20006;-85
2023/12/01 13:19:54;;;;;;;13.60;9.82;;;;;;;;;;6095686;23;20020;-85
2023/12/01 13:22:19;;;;;;;12.90;7.43;;;;;;;;;;6095916;23;20608;-84
2023/12/01 13:24:44;;;;;;;19.83;13.48;;;;;;;;;;6095677;23;20005;-86
2023/12/01 13:27:10;;;;;;;10.98;7.70;;;;;;;;;;6095069;23;20497;-85
2023/12/01 13:29:35;;;;;;;21.30;13.63;;;;;;;;;;6095640;23;20008;-85
2023/12/01 13:32:02;;;;;;;17.67;11.30;;;;;;;;;;6094001;23;20013;-85
2023/12/01 13:34:27;;;;;;;17.95;12.80;;;;;;;;;;6092077;23;19994;-84
2023/12/01 13:36:52;;;;;;;10.48;6.28;;;;;;;;;;6118323;23;20005;-84
2023/12/01 13:39:19;;;;;;;18.65;13.82;;;;;;;;;;6090802;23;20005;-83
2023/12/01 13:41:45;;;;;;;8.50;5.00;;;;;;;;;;6092786;23;20117;-85
2023/12/01 13:44:10;;;;;;;19.90;14.57;;;;;;;;;;6118207;23;20037;-85
2023/12/01 13:46:37;;;;;;;13.82;10.25;;;;;;;;;;6092483;23;20111;-84
2023/12/01 13:49:03;;;;;;;15.20;9.52;;;;;;;;;;6093216;23;20056;-83
2023/12/01 13:51:28;;;;;;;8.82;5.72;;;;;;;;;;6117810;23;19997;-84
2023/12/01 13:53:54;;;;;;;13.93;8.80;;;;;;;;;;6117835;23;20009;-85
2023/12/01 13:56:19;;;;;;;11.68;7.93;;;;;;;;;;6117532;23;20041;-85
2023/12/01 13:58:45;;;;;;;14.45;12.90;;;;;;;;;;6092486;23;20041;-84
2023/12/01 14:01:10;;;;;;;11.07;7.60;;;;;;;;;;6092674;23;20026;-83
2023/12/01 14:03:36;;;;;;;13.32;9.18;;;;;;;;;;6120454;23;20017;-86
2023/12/01 14:06:02;;;;;;;13.40;10.55;;;;;;;;;;6120758;23;20077;-83
2023/12/01 14:08:28;;;;;;;37.20;22.92;;;;;;;;;;6094400;23;20092;-84
2023/12/01 14:10:53;;;;;;;12.02;9.95;;;;;;;;;;6095362;23;20021;-84
2023/12/01 14:13:19;;;;;;;58.65;47.60;;;;;;;;;;6095116;23;19998;-84
2023/12/01 14:15:44;;;;;;;33.00;20.38;;;;;;;;;;6120803;23;20008;-84